Time;durP1;ratioP1;P1;durP2;ratioP2;P2;SDS_P1;SDS_P2;PMS_P1;PMS_P2;Temp;Humidity;BMP_temperature;BMP_pressure;BME280_temperature;BME280_humidity;BME280_pressure;Samples;Min_cycle;Max_cycle;Signal;HPM_P1;HPM_P2
2022/06/08 00:02:12;;;;;;;6.75;4.40;;;;;;;;;;5031039;28;20026;-78
2022/06/08 00:04:38;;;;;;;6.18;4.47;;;;;;;;;;5031798;28;20391;-79
2022/06/08 00:07:05;;;;;;;6.78;3.92;;;;;;;;;;5032562;28;20022;-79
2022/06/08 00:09:31;;;;;;;9.40;4.20;;;;;;;;;;5031057;28;20037;-79
2022/06/08 00:11:57;;;;;;;8.45;4.00;;;;;;;;;;5030774;28;20037;-79
2022/06/08 00:14:23;;;;;;;6.70;3.92;;;;;;;;;;5031335;28;20053;-79
2022/06/08 00:16:50;;;;;;;10.77;3.95;;;;;;;;;;5032208;28;20021;-79
2022/06/08 00:19:16;;;;;;;6.85;3.95;;;;;;;;;;5036818;28;20094;-78
2022/06/08 00:21:42;;;;;;;7.32;3.95;;;;;;;;;;5045260;28;20467;-77
2022/06/08 00:24:09;;;;;;;5.43;3.78;;;;;;;;;;5029667;28;20128;-78
2022/06/08 00:26:36;;;;;;;9.00;3.90;;;;;;;;;;5035382;28;20489;-77
2022/06/08 00:29:03;;;;;;;5.90;3.75;;;;;;;;;;5035626;28;20021;-78
2022/06/08 00:31:29;;;;;;;6.90;3.97;;;;;;;;;;5016478;28;20411;-79
2022/06/08 00:33:55;;;;;;;6.95;3.83;;;;;;;;;;5034123;28;20025;-78
2022/06/08 00:36:21;;;;;;;7.82;3.70;;;;;;;;;;5036012;28;20025;-79
2022/06/08 00:38:47;;;;;;;5.38;3.70;;;;;;;;;;5035823;28;20135;-79
2022/06/08 00:41:32;;;;;;;7.70;3.95;;;;;;;;;;5034589;28;20033;-79
2022/06/08 00:44:00;;;;;;;9.23;3.65;;;;;;;;;;5032897;28;20033;-78
2022/06/08 00:46:26;;;;;;;6.80;3.42;;;;;;;;;;5035906;28;20029;-77
2022/06/08 00:48:55;;;;;;;5.57;3.63;;;;;;;;;;5034136;28;20029;-79
2022/06/08 00:51:21;;;;;;;7.78;4.10;;;;;;;;;;5031821;28;20021;-79
2022/06/08 00:53:54;;;;;;;7.60;3.80;;;;;;;;;;5033564;28;20541;-79
2022/06/08 00:56:22;;;;;;;7.32;3.42;;;;;;;;;;5035423;28;20033;-78
2022/06/08 00:58:48;;;;;;;4.60;3.60;;;;;;;;;;5035132;28;20021;-78
2022/06/08 01:01:15;;;;;;;13.40;3.80;;;;;;;;;;5034143;28;20026;-78
2022/06/08 01:03:41;;;;;;;8.70;3.78;;;;;;;;;;5045509;28;20025;-79
2022/06/08 01:06:14;;;;;;;6.47;3.22;;;;;;;;;;5031577;28;20040;-77
2022/06/08 01:08:45;;;;;;;4.88;3.40;;;;;;;;;;5035104;28;20550;-78
2022/06/08 01:11:13;;;;;;;7.50;3.80;;;;;;;;;;5034644;28;20036;-76
2022/06/08 01:13:40;;;;;;;6.72;3.63;;;;;;;;;;5034035;28;20053;-77
2022/06/08 01:16:07;;;;;;;7.25;3.67;;;;;;;;;;5035119;28;20017;-78
2022/06/08 01:18:34;;;;;;;6.80;3.58;;;;;;;;;;5035388;28;20083;-77
2022/06/08 01:21:19;;;;;;;6.63;3.47;;;;;;;;;;5033870;28;20383;-79
2022/06/08 01:23:45;;;;;;;9.57;3.80;;;;;;;;;;5041404;28;20399;-78
2022/06/08 01:26:22;;;;;;;6.90;3.75;;;;;;;;;;5045491;28;20030;-78
2022/06/08 01:28:49;;;;;;;6.15;3.58;;;;;;;;;;5033667;28;20108;-78
2022/06/08 01:31:24;;;;;;;4.03;3.17;;;;;;;;;;5033451;28;20030;-79
2022/06/08 01:34:19;;;;;;;6.43;2.92;;;;;;;;;;5040251;28;20021;-79
2022/06/08 01:37:00;;;;;;;5.80;3.65;;;;;;;;;;5043754;28;20044;-79
2022/06/08 01:40:02;;;;;;;4.10;2.95;;;;;;;;;;5032844;28;20112;-78
2022/06/08 01:42:46;;;;;;;7.75;3.13;;;;;;;;;;4952643;28;20098;-78
2022/06/08 01:45:29;;;;;;;5.30;3.10;;;;;;;;;;4952722;29;20142;-78
2022/06/08 01:48:01;;;;;;;7.93;3.40;;;;;;;;;;4952144;28;20047;-78
2022/06/08 01:50:30;;;;;;;4.70;3.30;;;;;;;;;;4941557;29;20035;-77
2022/06/08 01:53:19;;;;;;;5.20;3.10;;;;;;;;;;4954020;28;20046;-78
2022/06/08 01:55:55;;;;;;;5.32;3.30;;;;;;;;;;4895828;29;20602;-78
2022/06/08 01:58:33;;;;;;;5.55;3.28;;;;;;;;;;4888394;29;20102;-78
2022/06/08 02:01:03;;;;;;;6.13;3.40;;;;;;;;;;4896226;29;20048;-77
2022/06/08 02:03:33;;;;;;;4.50;3.33;;;;;;;;;;4896598;29;20042;-77
2022/06/08 02:06:02;;;;;;;7.93;3.90;;;;;;;;;;4892474;29;20137;-77
2022/06/08 02:08:31;;;;;;;5.72;3.58;;;;;;;;;;4883444;29;20526;-77
2022/06/08 02:11:10;;;;;;;6.07;3.85;;;;;;;;;;4897178;29;20128;-78
2022/06/08 02:13:46;;;;;;;4.38;3.60;;;;;;;;;;4904583;29;20051;-76
2022/06/08 02:16:16;;;;;;;6.97;3.67;;;;;;;;;;4935118;28;20046;-78
2022/06/08 02:18:47;;;;;;;5.30;3.90;;;;;;;;;;4969362;28;20027;-77
2022/06/08 02:21:21;;;;;;;7.88;4.38;;;;;;;;;;4973207;28;20098;-77
2022/06/08 02:23:53;;;;;;;8.65;3.85;;;;;;;;;;4972752;28;20447;-77
2022/06/08 02:26:28;;;;;;;5.60;3.80;;;;;;;;;;4971497;28;20042;-77
2022/06/08 02:28:58;;;;;;;7.40;3.80;;;;;;;;;;4959598;28;20039;-76
2022/06/08 02:31:30;;;;;;;6.25;3.90;;;;;;;;;;4970871;28;20116;-76
2022/06/08 02:36:52;;;;;;;11.00;3.90;;;;;;;;;;5031965;28;20041;-77
2022/06/08 02:39:37;;;;;;;6.95;3.88;;;;;;;;;;5033420;28;20045;-77
2022/06/08 02:42:06;;;;;;;5.57;3.88;;;;;;;;;;5033598;28;20112;-77
2022/06/08 02:44:32;;;;;;;7.10;3.75;;;;;;;;;;5033357;28;20037;-77
2022/06/08 02:47:10;;;;;;;10.95;4.53;;;;;;;;;;5032383;28;20378;-77
2022/06/08 02:49:37;;;;;;;10.10;4.32;;;;;;;;;;5024911;28;20036;-77
2022/06/08 02:52:24;;;;;;;8.32;4.47;;;;;;;;;;5033457;28;20494;-77
2022/06/08 02:54:51;;;;;;;5.80;3.90;;;;;;;;;;5031237;28;20103;-77
2022/06/08 02:57:17;;;;;;;9.30;4.20;;;;;;;;;;5047581;28;20052;-79
2022/06/08 02:59:49;;;;;;;9.77;4.43;;;;;;;;;;5036901;28;20036;-77
2022/06/08 03:02:25;;;;;;;14.52;5.15;;;;;;;;;;5032359;28;20471;-77
2022/06/08 03:04:51;;;;;;;7.82;5.13;;;;;;;;;;5032911;28;20419;-75
2022/06/08 03:07:19;;;;;;;10.77;5.45;;;;;;;;;;5032732;28;20357;-78
2022/06/08 03:09:46;;;;;;;8.35;5.55;;;;;;;;;;5031793;28;20071;-75
2022/06/08 03:12:16;;;;;;;8.93;5.63;;;;;;;;;;5033016;28;20022;-77
2022/06/08 03:14:44;;;;;;;8.80;5.38;;;;;;;;;;5031834;28;20057;-77
2022/06/08 03:17:11;;;;;;;7.40;5.20;;;;;;;;;;5032743;28;20049;-76
2022/06/08 03:19:37;;;;;;;5.25;4.50;;;;;;;;;;5033320;28;20025;-76
2022/06/08 03:22:04;;;;;;;5.15;4.25;;;;;;;;;;5035938;28;20029;-75
2022/06/08 03:24:30;;;;;;;5.03;4.00;;;;;;;;;;5031841;28;20068;-77
2022/06/08 03:26:58;;;;;;;5.32;4.03;;;;;;;;;;5032334;28;20497;-75
2022/06/08 03:29:24;;;;;;;5.10;3.88;;;;;;;;;;5023345;28;20033;-74
2022/06/08 03:31:50;;;;;;;5.25;3.65;;;;;;;;;;5037739;28;20094;-77
2022/06/08 03:34:17;;;;;;;5.68;3.97;;;;;;;;;;5035285;28;20029;-77
2022/06/08 03:36:43;;;;;;;4.18;3.47;;;;;;;;;;5032450;28;20041;-78
2022/06/08 03:39:12;;;;;;;6.38;3.88;;;;;;;;;;5032277;28;20032;-76
2022/06/08 03:41:38;;;;;;;5.55;3.70;;;;;;;;;;5031168;28;20068;-77
2022/06/08 03:44:05;;;;;;;5.45;3.85;;;;;;;;;;5032306;28;20037;-76
2022/06/08 03:46:34;;;;;;;7.88;4.15;;;;;;;;;;5043877;28;20025;-76
2022/06/08 03:49:01;;;;;;;8.98;3.70;;;;;;;;;;5030872;28;20026;-76
2022/06/08 03:51:28;;;;;;;7.38;4.05;;;;;;;;;;5029923;28;20398;-76
2022/06/08 03:54:01;;;;;;;6.07;3.42;;;;;;;;;;5032080;28;20394;-75
2022/06/08 03:56:27;;;;;;;5.78;3.63;;;;;;;;;;5031129;28;20041;-77
2022/06/08 03:58:55;;;;;;;8.27;3.60;;;;;;;;;;5032033;28;20120;-75
2022/06/08 04:01:21;;;;;;;3.88;3.33;;;;;;;;;;5045579;28;20047;-77
2022/06/08 04:03:50;;;;;;;6.65;4.13;;;;;;;;;;5045031;28;20554;-74
2022/06/08 04:06:16;;;;;;;6.65;3.55;;;;;;;;;;5030545;28;20045;-75
2022/06/08 04:08:43;;;;;;;4.65;3.38;;;;;;;;;;5028309;28;20040;-78
2022/06/08 04:11:09;;;;;;;5.55;3.53;;;;;;;;;;5031099;28;20471;-73
2022/06/08 04:13:37;;;;;;;9.75;3.40;;;;;;;;;;5025373;28;20073;-75
2022/06/08 04:16:03;;;;;;;5.13;3.67;;;;;;;;;;5041289;28;20029;-72
2022/06/08 04:18:30;;;;;;;6.95;3.50;;;;;;;;;;5024776;28;20028;-74
2022/06/08 04:20:58;;;;;;;4.30;3.20;;;;;;;;;;5039855;28;20025;-75
2022/06/08 04:23:26;;;;;;;7.55;3.20;;;;;;;;;;5032279;28;20513;-73
2022/06/08 04:25:53;;;;;;;4.93;3.42;;;;;;;;;;5029850;28;20037;-74
2022/06/08 04:28:19;;;;;;;5.65;4.15;;;;;;;;;;5035764;28;20498;-74
2022/06/08 04:30:45;;;;;;;6.43;3.65;;;;;;;;;;5035089;28;20021;-78
2022/06/08 04:33:12;;;;;;;9.60;4.55;;;;;;;;;;5031061;28;20076;-80
2022/06/08 04:35:39;;;;;;;11.60;4.65;;;;;;;;;;5024062;28;20013;-80
2022/06/08 04:38:06;;;;;;;6.03;3.53;;;;;;;;;;5030812;28;20034;-79
2022/06/08 04:40:33;;;;;;;5.68;3.90;;;;;;;;;;5032680;28;20057;-81
2022/06/08 04:42:59;;;;;;;4.82;3.40;;;;;;;;;;5030176;28;20034;-77
2022/06/08 04:45:26;;;;;;;7.07;4.00;;;;;;;;;;5028345;28;20049;-79
2022/06/08 04:47:52;;;;;;;8.02;3.65;;;;;;;;;;5030658;28;20109;-75
2022/06/08 04:50:19;;;;;;;8.07;3.58;;;;;;;;;;5035055;28;20029;-85
2022/06/08 04:52:45;;;;;;;10.02;4.18;;;;;;;;;;5025884;28;20488;-79
2022/06/08 04:55:13;;;;;;;13.23;4.93;;;;;;;;;;5039138;28;20080;-82
2022/06/08 04:57:44;;;;;;;13.48;4.95;;;;;;;;;;5030675;28;20022;-75
2022/06/08 05:00:11;;;;;;;8.25;3.40;;;;;;;;;;5031547;28;20030;-77
2022/06/08 05:02:50;;;;;;;5.78;3.80;;;;;;;;;;5028784;28;20364;-78
2022/06/08 05:05:19;;;;;;;7.80;3.88;;;;;;;;;;5028700;28;20038;-81
2022/06/08 05:07:45;;;;;;;7.75;3.78;;;;;;;;;;5031713;28;20100;-73
2022/06/08 05:10:11;;;;;;;9.20;4.53;;;;;;;;;;5030253;28;20112;-73
2022/06/08 05:12:38;;;;;;;5.10;3.75;;;;;;;;;;5029151;28;20044;-75
2022/06/08 05:15:07;;;;;;;20.63;5.43;;;;;;;;;;5032736;28;20053;-74
2022/06/08 05:17:33;;;;;;;9.65;4.55;;;;;;;;;;5038090;28;20052;-73
2022/06/08 05:20:00;;;;;;;7.63;4.65;;;;;;;;;;5034902;28;20068;-73
2022/06/08 05:22:26;;;;;;;12.57;5.45;;;;;;;;;;5037368;28;20108;-77
2022/06/08 05:24:52;;;;;;;8.70;5.50;;;;;;;;;;5030118;28;20044;-83
2022/06/08 05:27:18;;;;;;;16.02;6.30;;;;;;;;;;5035342;28;20018;-77
2022/06/08 05:29:44;;;;;;;9.20;5.80;;;;;;;;;;5032847;28;20034;-76
2022/06/08 05:32:13;;;;;;;12.70;8.05;;;;;;;;;;5030600;28;20025;-74
2022/06/08 05:34:39;;;;;;;15.95;8.57;;;;;;;;;;5044705;28;20024;-74
2022/06/08 05:37:05;;;;;;;11.60;7.00;;;;;;;;;;5033862;28;20060;-80
2022/06/08 05:39:32;;;;;;;14.30;5.88;;;;;;;;;;5037821;28;20554;-82
2022/06/08 05:41:58;;;;;;;14.13;8.75;;;;;;;;;;5041754;28;20025;-85
2022/06/08 05:44:24;;;;;;;11.35;6.22;;;;;;;;;;5036180;28;20192;-81
2022/06/08 05:46:50;;;;;;;9.73;5.90;;;;;;;;;;5035947;28;20017;-87
2022/06/08 05:49:17;;;;;;;12.30;6.03;;;;;;;;;;5032181;28;20025;-79
2022/06/08 05:51:44;;;;;;;12.85;5.80;;;;;;;;;;5031218;28;20471;-79
2022/06/08 05:54:11;;;;;;;12.80;7.00;;;;;;;;;;5030874;28;20026;-80
2022/06/08 05:56:37;;;;;;;11.95;6.80;;;;;;;;;;5027558;28;20428;-84
2022/06/08 05:59:04;;;;;;;33.80;8.57;;;;;;;;;;5034519;28;20030;-78
2022/06/08 06:01:31;;;;;;;10.88;5.90;;;;;;;;;;5037578;28;20040;-86
2022/06/08 06:03:59;;;;;;;8.73;6.13;;;;;;;;;;5032778;28;20029;-81
2022/06/08 06:06:25;;;;;;;18.48;7.43;;;;;;;;;;5031557;28;20484;-78
2022/06/08 06:08:51;;;;;;;15.43;7.22;;;;;;;;;;5035603;28;20021;-76
2022/06/08 06:11:18;;;;;;;21.35;7.05;;;;;;;;;;5033247;28;20138;-79
2022/06/08 06:13:44;;;;;;;10.88;6.43;;;;;;;;;;5027241;28;20050;-79
2022/06/08 06:16:10;;;;;;;10.52;6.32;;;;;;;;;;5032073;28;20033;-78
2022/06/08 06:18:36;;;;;;;13.98;6.80;;;;;;;;;;5041550;28;20155;-76
2022/06/08 06:21:02;;;;;;;10.75;6.82;;;;;;;;;;5032786;28;20486;-78
2022/06/08 06:23:29;;;;;;;9.27;6.88;;;;;;;;;;5032814;28;20045;-78
2022/06/08 06:25:55;;;;;;;11.63;6.88;;;;;;;;;;5033001;28;20446;-77
2022/06/08 06:28:22;;;;;;;10.55;7.20;;;;;;;;;;5033402;28;20471;-78
2022/06/08 06:30:48;;;;;;;12.05;6.90;;;;;;;;;;5031732;28;20479;-81
2022/06/08 06:33:14;;;;;;;10.60;6.53;;;;;;;;;;5030516;28;20037;-78
2022/06/08 06:35:41;;;;;;;10.90;6.93;;;;;;;;;;5038660;28;20108;-77
2022/06/08 06:38:08;;;;;;;10.93;7.20;;;;;;;;;;5033306;28;20396;-76
2022/06/08 06:40:35;;;;;;;9.25;6.70;;;;;;;;;;5033777;28;20113;-78
2022/06/08 06:43:01;;;;;;;11.60;7.13;;;;;;;;;;5041543;28;20034;-75
2022/06/08 06:45:27;;;;;;;10.93;6.70;;;;;;;;;;5029855;28;20120;-78
2022/06/08 06:47:54;;;;;;;16.35;7.40;;;;;;;;;;5031491;28;20017;-78
2022/06/08 06:50:20;;;;;;;12.63;6.35;;;;;;;;;;5031362;28;20021;-78
2022/06/08 06:52:46;;;;;;;12.85;5.43;;;;;;;;;;5036956;28;20020;-82
2022/06/08 06:55:19;;;;;;;12.27;6.93;;;;;;;;;;5028876;28;20499;-81
2022/06/08 06:57:45;;;;;;;10.50;5.63;;;;;;;;;;5031551;28;20021;-85
2022/06/08 07:00:12;;;;;;;10.65;5.55;;;;;;;;;;5030909;28;20038;-85
2022/06/08 07:02:39;;;;;;;10.80;5.82;;;;;;;;;;5031621;28;20028;-83
2022/06/08 07:05:05;;;;;;;18.90;12.85;;;;;;;;;;5026355;28;20495;-82
2022/06/08 07:07:31;;;;;;;6.80;5.40;;;;;;;;;;5030486;28;20025;-79
2022/06/08 07:09:57;;;;;;;11.27;5.90;;;;;;;;;;5031776;28;20052;-85
2022/06/08 07:12:23;;;;;;;8.15;5.47;;;;;;;;;;5031649;28;20032;-76
2022/06/08 07:14:49;;;;;;;10.18;5.70;;;;;;;;;;5029105;28;20180;-77
2022/06/08 07:17:15;;;;;;;8.82;5.43;;;;;;;;;;5035430;28;20028;-77
2022/06/08 07:19:43;;;;;;;16.23;6.90;;;;;;;;;;5032579;28;20029;-76
2022/06/08 07:22:10;;;;;;;9.52;6.05;;;;;;;;;;5032417;28;20029;-74
2022/06/08 07:24:36;;;;;;;12.75;8.05;;;;;;;;;;5031862;28;20120;-81
2022/06/08 07:27:04;;;;;;;11.20;8.73;;;;;;;;;;5028737;28;20025;-83
2022/06/08 07:29:31;;;;;;;12.73;8.85;;;;;;;;;;5032277;28;20041;-76
2022/06/08 07:31:57;;;;;;;12.18;8.65;;;;;;;;;;5032732;28;20032;-77
2022/06/08 07:34:23;;;;;;;12.52;9.73;;;;;;;;;;5032674;28;20018;-82
2022/06/08 07:36:50;;;;;;;14.57;10.45;;;;;;;;;;5030788;28;20419;-82
2022/06/08 07:39:16;;;;;;;13.63;10.65;;;;;;;;;;5030378;28;20080;-82
2022/06/08 07:41:43;;;;;;;15.32;10.75;;;;;;;;;;5026268;28;20037;-79
2022/06/08 07:44:10;;;;;;;12.70;11.10;;;;;;;;;;5028831;28;20034;-76
2022/06/08 07:46:36;;;;;;;14.30;11.52;;;;;;;;;;5024822;28;20035;-78
2022/06/08 07:51:53;;;;;;;13.80;11.27;;;;;;;;;;5033057;28;20091;-82
2022/06/08 07:54:20;;;;;;;20.88;13.07;;;;;;;;;;5030378;28;20025;-80
2022/06/08 07:56:46;;;;;;;29.75;26.10;;;;;;;;;;5029646;28;20109;-82
2022/06/08 07:59:12;;;;;;;17.25;11.73;;;;;;;;;;5030740;28;20034;-82
2022/06/08 08:01:38;;;;;;;19.05;13.75;;;;;;;;;;5029870;28;20032;-80
2022/06/08 08:04:05;;;;;;;17.38;14.65;;;;;;;;;;5037474;28;20103;-82
2022/06/08 08:06:31;;;;;;;24.67;16.25;;;;;;;;;;5027877;28;20087;-83
2022/06/08 08:09:00;;;;;;;19.20;16.23;;;;;;;;;;5028973;28;20117;-78
2022/06/08 08:11:26;;;;;;;19.13;17.33;;;;;;;;;;5030363;28;20052;-79
2022/06/08 08:13:53;;;;;;;19.73;17.83;;;;;;;;;;5028093;28;20046;-77
2022/06/08 08:16:19;;;;;;;19.05;17.20;;;;;;;;;;5027919;28;20029;-77
2022/06/08 08:18:45;;;;;;;21.08;18.35;;;;;;;;;;5034799;28;20505;-76
2022/06/08 08:21:11;;;;;;;25.67;19.10;;;;;;;;;;5028949;28;20144;-78
2022/06/08 08:23:38;;;;;;;23.55;17.13;;;;;;;;;;5032462;28;20026;-80
2022/06/08 08:26:04;;;;;;;19.05;17.15;;;;;;;;;;5027830;28;20092;-82
2022/06/08 08:31:31;;;;;;;19.58;17.48;;;;;;;;;;5302834;23;20048;-89
2022/06/08 08:33:57;;;;;;;19.42;17.33;;;;;;;;;;5091800;28;20035;-89
2022/06/08 08:36:23;;;;;;;21.33;18.83;;;;;;;;;;5074640;28;20016;-91
2022/06/08 08:38:49;;;;;;;21.00;18.90;;;;;;;;;;5074260;28;20032;-86
2022/06/08 08:44:04;;;;;;;22.88;19.67;;;;;;;;;;5082208;28;20063;-89
2022/06/08 08:46:36;;;;;;;22.45;20.05;;;;;;;;;;5077459;28;20449;-89
2022/06/08 08:49:11;;;;;;;23.95;20.85;;;;;;;;;;5096724;28;20016;-89
2022/06/08 08:51:41;;;;;;;21.40;19.05;;;;;;;;;;5072082;28;20116;-86
2022/06/08 08:54:14;;;;;;;19.88;17.83;;;;;;;;;;5058651;28;20061;-89
2022/06/08 08:56:42;;;;;;;18.33;15.95;;;;;;;;;;5093408;28;20504;-88
2022/06/08 08:59:19;;;;;;;17.85;15.75;;;;;;;;;;5096486;28;20040;-90
2022/06/08 09:01:48;;;;;;;19.45;15.55;;;;;;;;;;5077785;28;20135;-89
2022/06/08 09:04:28;;;;;;;16.88;15.25;;;;;;;;;;5058858;28;20055;-88
2022/06/08 09:06:55;;;;;;;19.00;15.90;;;;;;;;;;5077143;28;20103;-87
2022/06/08 09:09:28;;;;;;;18.60;15.60;;;;;;;;;;5076280;28;20032;-87
2022/06/08 09:11:54;;;;;;;20.58;15.05;;;;;;;;;;5059138;28;20663;-87
2022/06/08 09:14:23;;;;;;;14.90;13.32;;;;;;;;;;5055841;28;20112;-85
2022/06/08 09:16:50;;;;;;;16.02;13.65;;;;;;;;;;5063563;28;20028;-86
2022/06/08 09:19:22;;;;;;;16.70;10.40;;;;;;;;;;5075448;28;20024;-89
2022/06/08 09:22:13;;;;;;;11.57;8.80;;;;;;;;;;5066159;28;20048;-88
2022/06/08 09:24:45;;;;;;;10.95;9.10;;;;;;;;;;5074604;28;20742;-89
2022/06/08 09:27:22;;;;;;;8.90;7.40;;;;;;;;;;5050036;28;20029;-88
2022/06/08 09:29:54;;;;;;;9.20;6.80;;;;;;;;;;5055352;28;20103;-88
2022/06/08 09:32:35;;;;;;;9.90;7.00;;;;;;;;;;5047090;28;20041;-88
2022/06/08 09:35:04;;;;;;;9.00;6.15;;;;;;;;;;5054153;28;20021;-88
2022/06/08 09:37:31;;;;;;;47.75;42.47;;;;;;;;;;5074975;28;20051;-90
2022/06/08 09:40:01;;;;;;;59.63;48.33;;;;;;;;;;5057374;28;20405;-90
2022/06/08 09:42:34;;;;;;;7.72;5.35;;;;;;;;;;5056619;28;20035;-92
2022/06/08 09:45:03;;;;;;;7.30;4.93;;;;;;;;;;5058441;28;20036;-91
2022/06/08 09:53:36;;;;;;;5.88;4.40;;;;;;;;;;5050597;28;20031;-87
2022/06/08 09:56:08;;;;;;;8.57;4.40;;;;;;;;;;5042306;28;20029;-88
2022/06/08 09:58:55;;;;;;;6.93;4.70;;;;;;;;;;5047569;28;20029;-89
2022/06/08 10:01:21;;;;;;;6.60;4.85;;;;;;;;;;5004837;28;20063;-87
2022/06/08 10:03:47;;;;;;;4.75;3.92;;;;;;;;;;5009355;28;20061;-89
2022/06/08 10:06:26;;;;;;;5.82;4.32;;;;;;;;;;5005147;28;20057;-88
2022/06/08 10:08:55;;;;;;;8.32;4.15;;;;;;;;;;5012380;28;20023;-88
2022/06/08 10:11:41;;;;;;;6.95;4.30;;;;;;;;;;5011626;28;20022;-85
2022/06/08 10:14:15;;;;;;;6.68;3.58;;;;;;;;;;5002983;28;20476;-88
2022/06/08 10:16:45;;;;;;;6.05;3.53;;;;;;;;;;4990434;28;20055;-83
2022/06/08 10:19:15;;;;;;;9.05;3.50;;;;;;;;;;4979814;28;20340;-83
2022/06/08 10:21:43;;;;;;;5.13;3.45;;;;;;;;;;5018808;28;20041;-87
2022/06/08 10:24:14;;;;;;;6.60;2.80;;;;;;;;;;4987091;28;20032;-86
2022/06/08 10:26:46;;;;;;;5.30;2.78;;;;;;;;;;5008462;28;20042;-85
2022/06/08 10:29:18;;;;;;;5.82;2.88;;;;;;;;;;4991669;28;20030;-89
2022/06/08 10:31:55;;;;;;;5.50;2.58;;;;;;;;;;4985357;28;20042;-80
2022/06/08 10:34:27;;;;;;;4.72;2.90;;;;;;;;;;5028495;28;20026;-84
2022/06/08 10:36:59;;;;;;;10.27;3.90;;;;;;;;;;5004849;28;20037;-89
2022/06/08 10:39:27;;;;;;;4.70;3.38;;;;;;;;;;5064094;28;20040;-86
2022/06/08 10:44:51;;;;;;;6.18;3.30;;;;;;;;;;5074374;28;20090;-80
2022/06/08 10:47:18;;;;;;;7.28;3.47;;;;;;;;;;5067517;28;20182;-77
2022/06/08 10:49:52;;;;;;;8.23;3.60;;;;;;;;;;5070971;28;20099;-89
2022/06/08 10:52:18;;;;;;;10.05;3.30;;;;;;;;;;5053135;28;20059;-89
2022/06/08 10:54:55;;;;;;;7.68;3.53;;;;;;;;;;5073161;28;20028;-87
2022/06/08 10:57:31;;;;;;;7.57;3.60;;;;;;;;;;5054108;28;20024;-89
2022/06/08 11:00:16;;;;;;;6.32;3.13;;;;;;;;;;5061009;28;20110;-85
2022/06/08 11:02:44;;;;;;;7.20;3.35;;;;;;;;;;5052840;28;20024;-88
2022/06/08 11:05:19;;;;;;;5.93;3.58;;;;;;;;;;5072724;28;20035;-89
2022/06/08 11:08:01;;;;;;;4.50;3.17;;;;;;;;;;5053724;28;20151;-91
2022/06/08 11:10:51;;;;;;;3.97;3.10;;;;;;;;;;5052898;28;20036;-91
2022/06/08 11:13:26;;;;;;;3.65;3.10;;;;;;;;;;5047768;28;20098;-91
2022/06/08 11:16:11;;;;;;;4.40;3.15;;;;;;;;;;5046642;28;20027;-91
2022/06/08 11:18:57;;;;;;;5.22;2.75;;;;;;;;;;5044867;28;20028;-89
2022/06/08 11:21:23;;;;;;;3.65;3.05;;;;;;;;;;5054594;28;20017;-87
2022/06/08 11:23:55;;;;;;;10.35;2.90;;;;;;;;;;5054925;28;20032;-90
2022/06/08 11:26:23;;;;;;;5.00;3.17;;;;;;;;;;5053010;28;20147;-87
2022/06/08 11:29:08;;;;;;;4.65;2.92;;;;;;;;;;5071799;28;20044;-90
2022/06/08 11:31:34;;;;;;;5.78;2.90;;;;;;;;;;5054169;28;20048;-85
2022/06/08 11:34:19;;;;;;;5.65;3.13;;;;;;;;;;5072409;28;20027;-90
2022/06/08 11:36:55;;;;;;;7.28;3.95;;;;;;;;;;5052547;28;20028;-89
2022/06/08 11:39:30;;;;;;;7.40;4.38;;;;;;;;;;5054673;28;20470;-91
2022/06/08 11:42:01;;;;;;;4.63;4.00;;;;;;;;;;5071359;28;20032;-87
2022/06/08 11:44:31;;;;;;;4.13;3.70;;;;;;;;;;5053361;28;20520;-90
2022/06/08 11:47:06;;;;;;;9.65;4.65;;;;;;;;;;5052516;28;20036;-86
2022/06/08 11:49:35;;;;;;;4.70;3.95;;;;;;;;;;5056536;28;20128;-81
2022/06/08 11:52:21;;;;;;;8.50;5.03;;;;;;;;;;5076810;28;20024;-85
2022/06/08 11:55:19;;;;;;;9.45;5.38;;;;;;;;;;5059141;28;20047;-81
2022/06/08 11:57:45;;;;;;;16.73;5.70;;;;;;;;;;5073758;28;20028;-82
2022/06/08 12:00:34;;;;;;;8.52;4.25;;;;;;;;;;5070396;28;20496;-78
2022/06/08 12:03:03;;;;;;;8.00;4.40;;;;;;;;;;5071662;28;20032;-80
2022/06/08 12:05:31;;;;;;;5.18;4.45;;;;;;;;;;5081313;28;20029;-82
2022/06/08 12:08:04;;;;;;;5.93;4.55;;;;;;;;;;5071385;28;20028;-84
2022/06/08 12:10:32;;;;;;;7.53;4.70;;;;;;;;;;5046835;28;20068;-82
2022/06/08 12:12:59;;;;;;;5.57;4.38;;;;;;;;;;5072956;28;20052;-82
2022/06/08 12:15:33;;;;;;;6.82;4.57;;;;;;;;;;5052994;28;20493;-85
2022/06/08 12:18:08;;;;;;;6.43;4.45;;;;;;;;;;5072323;28;20033;-81
2022/06/08 12:20:37;;;;;;;7.90;4.60;;;;;;;;;;5070794;28;20471;-85
2022/06/08 12:23:04;;;;;;;7.07;5.10;;;;;;;;;;5066680;28;20107;-77
2022/06/08 12:25:30;;;;;;;8.43;5.28;;;;;;;;;;5057638;28;20037;-81
2022/06/08 12:27:56;;;;;;;8.30;5.15;;;;;;;;;;5057196;28;20048;-74
2022/06/08 12:30:26;;;;;;;6.10;4.90;;;;;;;;;;5053638;28;20047;-83
2022/06/08 12:33:03;;;;;;;7.47;5.35;;;;;;;;;;5074953;28;20431;-86
2022/06/08 12:35:32;;;;;;;11.52;5.18;;;;;;;;;;5051500;28;20028;-85
2022/06/08 12:38:04;;;;;;;9.02;5.47;;;;;;;;;;5053121;28;20490;-88
2022/06/08 12:40:32;;;;;;;7.47;5.45;;;;;;;;;;5053546;28;20616;-89
2022/06/08 12:43:13;;;;;;;9.23;5.22;;;;;;;;;;5056782;28;20032;-76
2022/06/08 12:45:41;;;;;;;7.28;4.53;;;;;;;;;;5066554;28;20028;-79
2022/06/08 12:48:16;;;;;;;6.63;4.78;;;;;;;;;;5051165;28;20052;-81
2022/06/08 12:50:43;;;;;;;8.18;4.97;;;;;;;;;;5080398;28;20024;-80
2022/06/08 12:53:09;;;;;;;6.32;4.90;;;;;;;;;;5072334;28;20071;-80
2022/06/08 12:55:38;;;;;;;6.70;5.20;;;;;;;;;;5074269;28;20032;-88
2022/06/08 12:58:04;;;;;;;7.70;6.38;;;;;;;;;;5074910;28;20129;-86
2022/06/08 13:00:30;;;;;;;8.68;5.53;;;;;;;;;;5073518;28;20083;-84
2022/06/08 13:02:57;;;;;;;5.72;4.80;;;;;;;;;;5071466;28;20039;-78
2022/06/08 13:05:31;;;;;;;6.75;5.35;;;;;;;;;;5056179;28;20036;-80
2022/06/08 13:07:58;;;;;;;8.50;5.80;;;;;;;;;;5076876;28;20029;-84
2022/06/08 13:10:25;;;;;;;5.80;4.70;;;;;;;;;;5078878;28;20083;-82
2022/06/08 13:12:55;;;;;;;8.48;5.68;;;;;;;;;;5066671;28;20020;-84
2022/06/08 13:15:28;;;;;;;13.52;6.60;;;;;;;;;;5059229;28;20028;-85
2022/06/08 13:17:55;;;;;;;11.07;8.38;;;;;;;;;;5056053;28;20060;-85
2022/06/08 13:20:28;;;;;;;15.77;7.97;;;;;;;;;;5074789;28;20079;-86
2022/06/08 13:22:54;;;;;;;6.38;5.25;;;;;;;;;;5073794;28;20017;-83
2022/06/08 13:25:23;;;;;;;6.95;5.82;;;;;;;;;;5083398;28;20098;-87
2022/06/08 13:27:50;;;;;;;6.57;5.75;;;;;;;;;;5045531;28;20534;-86
2022/06/08 13:30:21;;;;;;;6.68;5.97;;;;;;;;;;5062391;28;20383;-88
2022/06/08 13:32:47;;;;;;;7.00;5.57;;;;;;;;;;5053493;28;20127;-89
2022/06/08 13:35:17;;;;;;;6.70;5.80;;;;;;;;;;5071211;28;20024;-89
2022/06/08 13:37:44;;;;;;;7.38;5.47;;;;;;;;;;5056508;28;20021;-87
2022/06/08 13:40:12;;;;;;;7.15;4.93;;;;;;;;;;5053613;28;20115;-83
2022/06/08 13:42:39;;;;;;;9.95;4.97;;;;;;;;;;5059921;28;20029;-82
2022/06/08 13:45:05;;;;;;;8.90;5.18;;;;;;;;;;5070948;28;20564;-79
2022/06/08 13:47:34;;;;;;;7.75;4.70;;;;;;;;;;5072265;28;20021;-80
2022/06/08 13:50:21;;;;;;;5.82;4.32;;;;;;;;;;5072300;28;20083;-85
2022/06/08 13:52:47;;;;;;;6.05;4.18;;;;;;;;;;4971899;28;20042;-92
2022/06/08 13:55:15;;;;;;;5.72;4.10;;;;;;;;;;4973814;28;20049;-79
2022/06/08 13:57:41;;;;;;;14.25;4.32;;;;;;;;;;4969378;28;20460;-77
2022/06/08 14:00:07;;;;;;;6.38;3.65;;;;;;;;;;4970984;28;20031;-84
2022/06/08 14:02:37;;;;;;;6.15;3.53;;;;;;;;;;4968855;28;20030;-82
2022/06/08 14:05:04;;;;;;;6.13;4.30;;;;;;;;;;4971663;28;20089;-82
2022/06/08 14:13:05;;;;;;;5.60;4.05;;;;;;;;;;4970960;28;20062;-82
2022/06/08 14:15:31;;;;;;;6.25;4.30;;;;;;;;;;4972245;28;20061;-81
2022/06/08 14:17:57;;;;;;;5.60;4.38;;;;;;;;;;4971613;28;20051;-82
2022/06/08 14:20:29;;;;;;;6.18;3.92;;;;;;;;;;4971705;28;20138;-81
2022/06/08 14:22:55;;;;;;;8.30;4.43;;;;;;;;;;4970287;28;20445;-78
2022/06/08 14:25:22;;;;;;;12.50;4.78;;;;;;;;;;4970033;28;20039;-83
2022/06/08 14:27:48;;;;;;;4.80;4.00;;;;;;;;;;4972860;28;20035;-79
2022/06/08 14:30:17;;;;;;;7.40;4.30;;;;;;;;;;5028470;28;20037;-83
2022/06/08 14:32:57;;;;;;;4.75;4.18;;;;;;;;;;5065481;28;20021;-83
2022/06/08 14:35:26;;;;;;;7.20;4.68;;;;;;;;;;5067375;28;20063;-81
2022/06/08 14:37:53;;;;;;;4.70;4.18;;;;;;;;;;5067586;28;20466;-83
2022/06/08 14:40:30;;;;;;;4.90;4.15;;;;;;;;;;5071548;28;20037;-80
2022/06/08 14:42:57;;;;;;;7.15;3.90;;;;;;;;;;5069511;28;20074;-82
2022/06/08 14:45:24;;;;;;;4.95;4.13;;;;;;;;;;5068132;28;20395;-82
2022/06/08 14:47:51;;;;;;;10.85;4.45;;;;;;;;;;5069894;28;20070;-82
2022/06/08 14:50:22;;;;;;;5.32;3.90;;;;;;;;;;5069219;28;20024;-83
2022/06/08 14:52:48;;;;;;;5.93;3.90;;;;;;;;;;5068329;28;20020;-81
2022/06/08 14:58:04;;;;;;;7.38;4.07;;;;;;;;;;5064768;28;20040;-76
2022/06/08 15:00:33;;;;;;;6.07;3.80;;;;;;;;;;5070181;28;20029;-83
2022/06/08 15:03:02;;;;;;;5.18;3.65;;;;;;;;;;5070909;28;20086;-81
2022/06/08 15:05:28;;;;;;;3.83;3.28;;;;;;;;;;5066181;28;20037;-81
2022/06/08 15:07:54;;;;;;;4.15;3.40;;;;;;;;;;5068237;28;20028;-81
2022/06/08 15:10:21;;;;;;;10.52;3.50;;;;;;;;;;5071346;28;20033;-80
2022/06/08 15:12:48;;;;;;;8.02;4.80;;;;;;;;;;5061200;28;20019;-82
2022/06/08 15:15:22;;;;;;;7.60;4.65;;;;;;;;;;5067614;28;20033;-81
2022/06/08 15:17:52;;;;;;;37.00;12.20;;;;;;;;;;5067860;28;20112;-79
2022/06/08 15:20:38;;;;;;;8.88;5.70;;;;;;;;;;5052885;28;20569;-81
2022/06/08 15:23:04;;;;;;;14.43;5.70;;;;;;;;;;5066535;28;20027;-85